ADDS METAR Data INFO
IDs: Format: Raw Decoded Include TAF

Data at: 1809 UTC 18 Feb 2018

KGBG 181755Z AUTO 15011G18KT 10SM CLR 04/00 A3010 RMK AO2 T00390000 10040 21062
KGBG 181735Z AUTO 15011G17KT 10SM CLR 04/00 A3012 RMK AO2 T00351004
KGBG 181715Z AUTO 14010G17KT 10SM CLR 03/M01 A3013 RMK AO2 T00271006
KGBG 181655Z AUTO 15007G14KT 10SM CLR 02/00 A3015 RMK AO2 T00171005
KGBG 181635Z AUTO 14008KT 10SM CLR 00/00 A3017 RMK AO2 T00010001
KGBG 181615Z AUTO 15008KT 10SM CLR M01/M01 A3019 RMK AO2 T10061006
KGBG 181555Z AUTO 15008G14KT 10SM CLR M01/M01 A3020 RMK AO2 T10121012
KGBG 181535Z AUTO 15009KT 10SM CLR M01/M01 A3021 RMK AO2 T10131013
KGBG 181515Z AUTO 15007KT 110V170 10SM CLR M02/M02 A3021 RMK AO2 T10161016
KGBG 181455Z AUTO 15005KT 10SM CLR M02/M02 A3023 RMK AO2 T10251025
KGBG 181435Z AUTO 15005KT 7SM CLR M03/M03 A3024 RMK AO2 T10341034
KGBG 181415Z AUTO 15005KT 7SM CLR M04/M04 A3024 RMK AO2 T10431043
KGBG 181355Z AUTO 15004KT 7SM CLR M05/M05 A3025 RMK AO2 T10501050
KGBG 181335Z AUTO 16003KT 7SM CLR M05/M05 A3024 RMK AO2 T10501050
KGBG 181315Z AUTO 13003KT 7SM CLR M05/M05 A3022 RMK AO2 T10501050
KGBG 181255Z AUTO 14003KT 5SM BR CLR M06/M06 A3022 RMK AO2 T10561056
KGBG 181235Z AUTO 15004KT 7SM CLR M06/M06 A3021 RMK AO2 T10611061
KGBG 181215Z AUTO 17004KT 7SM CLR M06/M06 A3021 RMK AO2 T10601060
KGBG 181155Z AUTO 15004KT 7SM CLR M06/M06 A3020 RMK AO2 70004 T10601060 11060 21124
KGBG 181135Z AUTO 13003KT 7SM CLR M08/M08 A3019 RMK AO2 T10801083
KGBG 181115Z AUTO 13003KT 7SM CLR M09/M09 A3020 RMK AO2 T10861090
KGBG 181055Z AUTO 12003KT 5SM BR CLR M09/M09 A3020 RMK AO2 T10871091
KGBG 181035Z AUTO 14003KT 7SM CLR M10/M10 A3021 RMK AO2 T11001105
KGBG 181015Z AUTO 13003KT 5SM BR CLR M10/M11 A3021 RMK AO2 T11041109
KGBG 180955Z AUTO 10003KT 7SM CLR M10/M11 A3021 RMK AO2 T11031108
KGBG 180935Z AUTO 00000KT 5SM BR SCT002 M11/M12 A3022 RMK AO2 T11081117
KGBG 180915Z AUTO 00000KT 10SM SCT002 M11/M11 A3022 RMK AO2 T11101115
KGBG 180855Z AUTO 00000KT 7SM BKN002 M11/M11 A3022 RMK AO2 T11091115
KGBG 180835Z AUTO 00000KT 5SM BR OVC002 M10/M11 A3023 RMK AO2 T11051110
KGBG 180815Z AUTO 00000KT 1/4SM FZFG OVC002 M11/M11 A3023 RMK AO2 T11081114
KGBG 180755Z AUTO 00000KT 1/4SM FZFG OVC002 M11/M12 A3023 RMK AO2 T11131118
KGBG 180735Z AUTO 00000KT 2SM BR SCT002 M11/M12 A3023 RMK AO2 T11101117
KGBG 180715Z AUTO 00000KT 10SM CLR M10/M11 A3024 RMK AO2 T11021108
KGBG 180655Z AUTO 00000KT 7SM CLR M10/M10 A3023 RMK AO2 T10981102
KGBG 180635Z AUTO 00000KT 4SM BR CLR M10/M11 A3022 RMK AO2 T11051110
KGBG 180615Z AUTO 22003KT 5SM BR CLR M08/M08 A3023 RMK AO2 T10831083
KGBG 180555Z AUTO 00000KT 5SM BR CLR M08/M08 A3022 RMK AO2 T10761078 11011 21093 400121095
KGBG 180535Z AUTO 22004KT 5SM BR CLR M08/M08 A3022 RMK AO2 T10781080
KGBG 180515Z AUTO 22003KT 4SM BR CLR M08/M08 A3020 RMK AO2 T10761079
KGBG 180455Z AUTO 22003KT 7SM CLR M06/M06 A3020 RMK AO2 T10611061
KGBG 180435Z AUTO 22004KT 7SM CLR M06/M06 A3020 RMK AO2 T10621062
KGBG 180415Z AUTO 19005KT 7SM CLR M09/M09 A3019 RMK AO2 T10911094
KGBG 180355Z AUTO 22003KT 7SM CLR M07/M07 A3018 RMK AO2 T10691069
KGBG 180335Z AUTO 00000KT 10SM CLR M05/M05 A3018 RMK AO2 T10511051
KGBG 180315Z AUTO 00000KT 10SM CLR M05/M05 A3017 RMK AO2 T10481049
KGBG 180255Z AUTO 00000KT 10SM CLR M06/M06 A3017 RMK AO2 T10581064
KGBG 180235Z AUTO 27005KT 10SM CLR M06/M07 A3017 RMK AO2 T10571066
KGBG 180215Z AUTO 29003KT 10SM CLR M04/M05 A3015 RMK AO2 T10411054
KGBG 180155Z AUTO 30007KT 10SM CLR M03/M05 A3015 RMK AO2 T10351047
KGBG 180135Z AUTO 29006KT 10SM CLR M04/M05 A3015 RMK AO2 T10381046
KGBG 180115Z AUTO 28004KT 10SM CLR M05/M06 A3014 RMK AO2 T10501062
KGBG 180055Z AUTO 29005KT 10SM CLR M03/M05 A3013 RMK AO2 T10351046
KGBG 180035Z AUTO 28006KT 10SM CLR M03/M05 A3013 RMK AO2 T10301046
KGBG 180015Z AUTO 29008KT 10SM SCT021 M02/M04 A3012 RMK AO2 T10201037
KGBG 172355Z AUTO 28008KT 10SM BKN023 M01/M03 A3010 RMK AO2 60004 T10111033 10012 21011
KGBG 172335Z AUTO 28011KT 10SM BKN025 00/M03 A3008 RMK AO2 T10051030
KGBG 172315Z AUTO 29012G17KT 10SM OVC025 00/M02 A3007 RMK AO2 T00001025
KGBG 172255Z AUTO 28013KT 10SM BKN027 00/M02 A3006 RMK AO2 T00001025
KGBG 172235Z AUTO 29013G21KT 10SM SCT019 BKN026 00/M02 A3004 RMK AO2 T00011020
KGBG 172215Z AUTO 30011G18KT 10SM BKN017 OVC024 01/M01 A3003 RMK AO2 T00071010
KGBG 172155Z AUTO 27013KT 10SM BKN019 OVC023 01/M01 A3002 RMK AO2 T00071007
KGBG 172135Z AUTO 28015G22KT 10SM OVC017 01/M01 A3000 RMK AO2 T00081009
KGBG 172115Z AUTO 28014G20KT 10SM OVC017 01/00 A2998 RMK AO2 T00101005
KGBG 172055Z AUTO 27015G20KT 10SM SCT014 OVC019 01/00 A2996 RMK AO2 60004 T00101001
KGBG 172035Z AUTO 25010G15KT 10SM SCT007 BKN011 OVC014 01/00 A2996 RMK AO2 T00110002
KGBG 172015Z AUTO 23013G16KT 5SM BR OVC005 01/01 A2995 RMK AO2 T00070005
KGBG 171955Z AUTO 22008KT 1 3/4SM -SN OVC005 01/01 A2994 RMK AO2 P0001 T00060005
KGBG 171935Z AUTO 21009KT 1 3/4SM -SN OVC005 00/00 A2994 RMK AO2 P0001 T00030003
KGBG 171915Z AUTO 21009KT 1SM -SN OVC005 00/00 A2995 RMK AO2 T00010001
KGBG 171855Z AUTO 19009KT 1/2SM SN OVC003 00/00 A2994 RMK AO2 P0003 T00000000
KGBG 171835Z AUTO 18009KT 1/2SM SN OVC005 00/00 A2995 RMK AO2 P0002 T00000000
KGBG 171815Z AUTO 19010G16KT 1/4SM SN OVC005 00/00 A2996 RMK AO2 P0001 T00001005
KGBG 171755Z AUTO 18011G17KT 5SM -SN OVC014 00/M01 A2997 RMK AO2 T00021010 10005 21054
KGBG 171735Z AUTO 18010KT 4SM -SN OVC014 00/M01 A2997 RMK AO2 T00021015
KGBG 171715Z AUTO 17010G15KT 10SM BKN014 OVC029 00/M02 A2998 RMK AO2 T00031018
KGBG 171655Z AUTO 16009KT 10SM SCT026 BKN031 OVC036 00/M02 A2999 RMK AO2 T00031019
KGBG 171635Z AUTO 17011KT 10SM BKN036 OVC043 00/M02 A3001 RMK AO2 T00001025
KGBG 171615Z AUTO 16009KT 10SM SCT034 SCT045 BKN090 00/M02 A3001 RMK AO2 T00001025
KGBG 171555Z AUTO 15007KT 10SM SCT090 00/M03 A3002 RMK AO2 T10051030
KGBG 171535Z AUTO 15005KT 10SM SCT100 M01/M04 A3002 RMK AO2 T10111038
KGBG 171515Z AUTO 15006KT 10SM BKN100 M01/M04 A3002 RMK AO2 T10151040
KGBG 171455Z AUTO 16008KT 10SM BKN110 M02/M04 A3003 RMK AO2 T10201045
KGBG 171435Z AUTO 15008KT 10SM SCT110 M02/M05 A3004 RMK AO2 T10251051
KGBG 171415Z AUTO 15007KT 10SM BKN110 M03/M06 A3005 RMK AO2 T10311059
KGBG 171355Z AUTO 14006KT 10SM OVC100 M03/M06 A3005 RMK AO2 T10331065
KGBG 171335Z AUTO 14006KT 10SM BKN100 OVC120 M04/M07 A3004 RMK AO2 T10381067
KGBG 171315Z AUTO 14005KT 10SM OVC110 M04/M07 A3005 RMK AO2 T10411069
KGBG 171255Z AUTO 14004KT 10SM OVC110 M04/M07 A3008 RMK AO2 T10441071
KGBG 171235Z AUTO 14004KT 10SM OVC110 M05/M07 A3008 RMK AO2 T10481075
KGBG 171215Z AUTO 15005KT 10SM OVC110 M05/M08 A3009 RMK AO2 T10511077
KGBG 171155Z AUTO 14005KT 10SM BKN110 M05/M08 A3010 RMK AO2 T10541079 11054 21095
KGBG 171135Z AUTO 14004KT 10SM CLR M06/M08 A3010 RMK AO2 T10561082
KGBG 171115Z AUTO 15005KT 10SM CLR M05/M08 A3014 RMK AO2 T10551084
KGBG 171055Z AUTO 13005KT 10SM CLR M06/M09 A3012 RMK AO2 T10561087
KGBG 171035Z AUTO 13004KT 10SM CLR M06/M09 A3012 RMK AO2 T10631090
KGBG 171015Z AUTO 13003KT 10SM CLR M07/M09 A3014 RMK AO2 T10681092
KGBG 170955Z AUTO 14003KT 10SM CLR M07/M09 A3015 RMK AO2 T10701095
KGBG 170935Z AUTO 15005KT 10SM CLR M07/M09 A3015 RMK AO2 T10661094
KGBG 170915Z AUTO 14004KT 10SM CLR M07/M10 A3015 RMK AO2 T10671100
KGBG 170855Z AUTO 14004KT 10SM CLR M07/M11 A3017 RMK AO2 T10721106
KGBG 170835Z AUTO 12003KT 10SM CLR M07/M11 A3018 RMK AO2 T10751107
KGBG 170815Z AUTO 14003KT 10SM CLR M08/M10 A3019 RMK AO2 T10781105
KGBG 170755Z AUTO 12004KT 10SM CLR M08/M10 A3019 RMK AO2 T10761102
KGBG 170735Z AUTO 12004KT 10SM CLR M08/M10 A3020 RMK AO2 T10781102
KGBG 170715Z AUTO 11004KT 10SM CLR M08/M10 A3021 RMK AO2 T10821100
KGBG 170655Z AUTO 11003KT 10SM CLR M09/M10 A3023 RMK AO2 T10921101
KGBG 170635Z AUTO 00000KT 10SM CLR M09/M10 A3025 RMK AO2 T10941100
KGBG 170615Z AUTO 00000KT 10SM CLR M09/M10 A3025 RMK AO2 T10891101